< < Back
Terminal Aerodrome Forecast


Current Version              Previous Versions:   1  2  3  4  5  6  7  8  9  

Terminal Aerodrome Forecast

057
FTUS42 KGSP 261120
TAFHKY
TAF
KHKY 261120Z 2612/2712 22003KT P6SM SCT060 BKN120
     FM261800 22006KT P6SM BKN060 PROB30 2621/2702 4SM -TSRA
      OVC025CB
     FM270200 21003KT P6SM BKN060
     FM270900 00000KT 6SM BR SCT060 BKN120=

Latest METAR

240
SAUS70 KWBC 270000 RRA
MTRHKY
METAR KHKY 262353Z AUTO 00000KT 10SM FEW060 24/19 A3010 RMK AO2 SLP174
60009 T02390194 10294 20222 $


USA.gov is the U.S. government's official web portal to all federal, state and local government web resources and services.